Time;durP1;ratioP1;P1;durP2;ratioP2;P2;SDS_P1;SDS_P2;PMS_P1;PMS_P2;Temp;Humidity;BMP_temperature;BMP_pressure;BME280_temperature;BME280_humidity;BME280_pressure;Samples;Min_cycle;Max_cycle;Signal;HPM_P1;HPM_P2
2023/09/15 00:02:25;;;;;;;;;;;13.60;99.90;;;;;;5104733;28;20393;-71
2023/09/15 00:04:51;;;;;;;;;;;13.60;99.90;;;;;;5110076;28;19932;-71
2023/09/15 00:07:17;;;;;;;;;;;13.60;90.40;;;;;;5110680;28;19927;-71
2023/09/15 00:09:42;;;;;;;;;;;13.60;99.90;;;;;;5110282;28;19924;-71
2023/09/15 00:12:08;;;;;;;;;;;13.60;99.90;;;;;;5110616;28;19928;-71
2023/09/15 00:14:38;;;;;;;;;;;13.60;99.90;;;;;;5110240;28;19923;-71
2023/09/15 00:17:03;;;;;;;;;;;13.50;99.90;;;;;;5092356;28;19974;-72
2023/09/15 00:19:29;;;;;;;;;;;13.50;99.90;;;;;;5110564;27;20316;-71
2023/09/15 00:21:55;;;;;;;;;;;13.50;99.90;;;;;;5110336;27;19924;-72
2023/09/15 00:24:21;;;;;;;;;;;13.50;99.90;;;;;;5092369;28;20449;-71
2023/09/15 00:26:48;;;;;;;;;;;13.50;99.90;;;;;;5111165;28;19977;-71
2023/09/15 00:29:14;;;;;;;;;;;13.40;99.90;;;;;;5110885;28;19931;-71
2023/09/15 00:31:40;;;;;;;;;;;13.40;99.90;;;;;;5110855;28;19927;-71
2023/09/15 00:34:06;;;;;;;;;;;13.40;99.90;;;;;;5110197;28;19931;-71
2023/09/15 00:36:32;;;;;;;;;;;13.40;99.90;;;;;;5113496;27;20302;-71
2023/09/15 00:38:58;;;;;;;;;;;13.30;99.90;;;;;;5092139;28;20416;-71
2023/09/15 00:41:24;;;;;;;;;;;13.30;99.90;;;;;;5110149;28;19924;-71
2023/09/15 00:43:49;;;;;;;;;;;13.30;99.90;;;;;;5110294;28;19931;-71
2023/09/15 00:46:15;;;;;;;;;;;13.30;1.00;;;;;;5092370;28;20030;-72
2023/09/15 00:48:41;;;;;;;;;;;13.20;99.90;;;;;;5110767;28;19931;-71
2023/09/15 00:51:07;;;;;;;;;;;13.20;75.80;;;;;;5110244;28;19924;-71
2023/09/15 00:53:34;;;;;;;;;;;13.20;99.90;;;;;;5109925;28;20014;-71
2023/09/15 00:56:00;;;;;;;;;;;13.20;99.90;;;;;;5110471;28;19924;-71
2023/09/15 00:58:26;;;;;;;;;;;13.20;99.90;;;;;;5114064;28;19984;-72
2023/09/15 01:00:52;;;;;;;;;;;13.10;99.90;;;;;;5117736;28;19935;-71
2023/09/15 01:03:19;;;;;;;;;;;13.10;1.00;;;;;;5120262;28;19982;-71
2023/09/15 01:05:48;;;;;;;;;;;13.10;1.00;;;;;;5102876;28;19977;-71
2023/09/15 01:08:13;;;;;;;;;;;13.10;1.00;;;;;;5110129;28;19923;-71
2023/09/15 01:10:39;;;;;;;;;;;13.10;1.00;;;;;;5113232;28;19938;-72
2023/09/15 01:13:04;;;;;;;;;;;13.00;39.40;;;;;;5118857;27;19959;-71
2023/09/15 01:15:35;;;;;;;;;;;13.00;99.90;;;;;;5130666;27;20331;-71
2023/09/15 01:18:20;;;;;;;;;;;13.00;99.90;;;;;;5124518;27;19924;-72
2023/09/15 01:20:52;;;;;;;;;;;13.00;99.90;;;;;;5095320;28;19986;-71
2023/09/15 01:23:36;;;;;;;;;;;12.90;99.90;;;;;;5122160;27;20380;-71
2023/09/15 01:26:20;;;;;;;;;;;12.90;99.90;;;;;;5124728;27;20440;-72
2023/09/15 01:28:52;;;;;;;;;;;12.90;99.90;;;;;;5113202;28;19943;-71
2023/09/15 01:31:17;;;;;;;;;;;12.90;99.90;;;;;;5112514;28;19928;-72
2023/09/15 01:33:43;;;;;;;;;;;12.90;1.00;;;;;;5112982;28;19931;-71
2023/09/15 01:36:09;;;;;;;;;;;12.90;1.00;;;;;;5112999;27;19931;-71
2023/09/15 01:38:34;;;;;;;;;;;12.90;99.90;;;;;;5113717;28;19924;-71
2023/09/15 01:41:00;;;;;;;;;;;12.90;45.50;;;;;;5095946;28;19924;-71
2023/09/15 01:43:25;;;;;;;;;;;12.90;1.00;;;;;;5113339;27;19985;-72
2023/09/15 01:45:51;;;;;;;;;;;12.80;99.90;;;;;;5113276;27;19924;-72
2023/09/15 01:48:17;;;;;;;;;;;12.80;99.90;;;;;;5095586;27;19923;-72
2023/09/15 01:50:42;;;;;;;;;;;12.80;1.00;;;;;;5112429;28;20436;-72
2023/09/15 01:53:08;;;;;;;;;;;12.80;99.90;;;;;;5112193;27;20294;-72
2023/09/15 01:55:34;;;;;;;;;;;12.70;99.90;;;;;;5111724;28;20003;-71
2023/09/15 01:57:59;;;;;;;;;;;12.70;99.90;;;;;;5100480;28;19931;-72
2023/09/15 02:00:31;;;;;;;;;;;12.70;99.90;;;;;;5112449;28;19971;-72
2023/09/15 02:02:57;;;;;;;;;;;12.70;99.90;;;;;;5112384;28;19924;-71
2023/09/15 02:05:24;;;;;;;;;;;12.70;99.90;;;;;;5113516;27;19924;-72
2023/09/15 02:07:49;;;;;;;;;;;12.60;99.90;;;;;;5112564;28;19928;-71
2023/09/15 02:10:15;;;;;;;;;;;12.60;1.00;;;;;;5108438;28;19924;-72
2023/09/15 02:12:40;;;;;;;;;;;12.60;1.00;;;;;;5124349;27;19928;-72
2023/09/15 02:15:06;;;;;;;;;;;12.60;1.00;;;;;;5130811;27;19930;-71
2023/09/15 02:17:32;;;;;;;;;;;12.50;99.90;;;;;;5127755;27;19931;-71
2023/09/15 02:19:57;;;;;;;;;;;12.50;99.90;;;;;;5123239;27;19927;-72
2023/09/15 02:22:23;;;;;;;;;;;12.50;1.00;;;;;;5112368;28;19946;-72
2023/09/15 02:24:48;;;;;;;;;;;12.50;99.90;;;;;;5112854;28;19931;-72
2023/09/15 02:27:14;;;;;;;;;;;12.50;1.00;;;;;;5113294;27;19931;-72
2023/09/15 02:29:39;;;;;;;;;;;12.50;69.10;;;;;;5124221;27;19938;-72
2023/09/15 02:32:05;;;;;;;;;;;12.50;99.90;;;;;;5112784;27;19977;-72
2023/09/15 02:34:30;;;;;;;;;;;12.50;1.00;;;;;;5113205;27;19928;-72
2023/09/15 02:36:56;;;;;;;;;;;12.40;99.90;;;;;;5113975;27;20010;-71
2023/09/15 02:39:21;;;;;;;;;;;12.40;99.90;;;;;;5113545;27;19924;-72
2023/09/15 02:41:47;;;;;;;;;;;12.40;99.90;;;;;;5112820;27;19924;-72
2023/09/15 02:44:13;;;;;;;;;;;12.40;1.00;;;;;;5112181;28;19924;-72
2023/09/15 02:46:38;;;;;;;;;;;12.30;99.90;;;;;;5112070;28;19928;-71
2023/09/15 02:49:04;;;;;;;;;;;12.30;99.90;;;;;;5119424;27;19924;-72
2023/09/15 02:51:29;;;;;;;;;;;12.30;24.00;;;;;;5131492;27;19924;-72
2023/09/15 02:53:55;;;;;;;;;;;12.30;1.00;;;;;;5112670;28;19924;-72
2023/09/15 02:56:22;;;;;;;;;;;12.30;1.00;;;;;;5112011;27;19923;-71
2023/09/15 02:58:48;;;;;;;;;;;12.30;99.90;;;;;;5113299;27;19935;-72
2023/09/15 03:01:14;;;;;;;;;;;12.30;99.90;;;;;;5113275;27;19923;-72
2023/09/15 03:03:40;;;;;;;;;;;12.20;99.90;;;;;;5113807;27;19939;-72
2023/09/15 03:06:06;;;;;;;;;;;12.20;1.00;;;;;;5112554;27;20014;-72
2023/09/15 03:08:33;;;;;;;;;;;12.20;99.90;;;;;;5113001;27;19935;-72
2023/09/15 03:10:58;;;;;;;;;;;12.20;99.90;;;;;;5111464;27;19931;-72
2023/09/15 03:13:24;;;;;;;;;;;12.20;1.00;;;;;;5129292;27;19927;-72
2023/09/15 03:15:49;;;;;;;;;;;12.20;1.00;;;;;;5127021;27;20013;-72
2023/09/15 03:18:15;;;;;;;;;;;12.20;1.00;;;;;;5118164;27;20347;-72
2023/09/15 03:20:40;;;;;;;;;;;12.20;1.00;;;;;;5127070;27;19938;-72
2023/09/15 03:23:06;;;;;;;;;;;12.20;99.90;;;;;;5123180;27;19923;-72
2023/09/15 03:25:31;;;;;;;;;;;12.20;1.00;;;;;;5123088;27;19930;-71
2023/09/15 03:27:57;;;;;;;;;;;12.20;64.20;;;;;;5129568;27;20728;-71
2023/09/15 03:30:22;;;;;;;;;;;12.10;99.90;;;;;;5129723;27;20401;-72
2023/09/15 03:32:48;;;;;;;;;;;12.10;99.90;;;;;;5106736;28;19947;-71
2023/09/15 03:35:13;;;;;;;;;;;12.10;1.00;;;;;;5124087;27;20377;-71
2023/09/15 03:37:39;;;;;;;;;;;12.20;70.10;;;;;;5117271;27;19940;-71
2023/09/15 03:40:07;;;;;;;;;;;12.10;1.00;;;;;;5129116;27;20040;-72
2023/09/15 03:42:33;;;;;;;;;;;12.10;99.90;;;;;;5116045;27;20389;-71
2023/09/15 03:44:59;;;;;;;;;;;12.10;59.00;;;;;;5119655;27;19927;-72
2023/09/15 03:47:25;;;;;;;;;;;12.10;99.90;;;;;;5129511;27;20466;-72
2023/09/15 03:49:51;;;;;;;;;;;12.00;99.90;;;;;;5129997;27;20450;-72
2023/09/15 03:52:16;;;;;;;;;;;12.00;1.00;;;;;;5130570;27;19931;-72
2023/09/15 03:54:42;;;;;;;;;;;11.90;99.90;;;;;;5125047;27;19950;-72
2023/09/15 03:57:07;;;;;;;;;;;11.90;99.90;;;;;;5129747;27;19927;-72
2023/09/15 03:59:33;;;;;;;;;;;11.80;1.00;;;;;;5130785;27;19930;-72
2023/09/15 04:02:00;;;;;;;;;;;11.80;38.50;;;;;;5130450;27;20398;-72
2023/09/15 04:04:25;;;;;;;;;;;11.80;99.90;;;;;;5125405;27;20007;-72
2023/09/15 04:06:51;;;;;;;;;;;11.80;99.90;;;;;;5129941;27;19951;-72
2023/09/15 04:09:19;;;;;;;;;;;11.70;99.90;;;;;;5130170;27;20373;-72
2023/09/15 04:11:44;;;;;;;;;;;11.80;99.90;;;;;;5110157;28;19924;-72
2023/09/15 04:14:10;;;;;;;;;;;11.70;99.90;;;;;;5110252;28;19993;-72
2023/09/15 04:16:37;;;;;;;;;;;11.70;1.00;;;;;;5110485;28;19946;-72
2023/09/15 04:19:03;;;;;;;;;;;11.60;1.00;;;;;;5110536;28;19931;-72
2023/09/15 04:21:28;;;;;;;;;;;11.60;1.00;;;;;;5109588;28;19924;-72
2023/09/15 04:23:54;;;;;;;;;;;11.60;17.60;;;;;;5091954;28;20680;-72
2023/09/15 04:26:20;;;;;;;;;;;11.60;56.10;;;;;;5110221;28;19931;-72
2023/09/15 04:28:46;;;;;;;;;;;11.50;97.80;;;;;;5109908;28;20408;-72
2023/09/15 04:31:11;;;;;;;;;;;11.50;99.90;;;;;;5110203;27;20007;-72
2023/09/15 04:33:37;;;;;;;;;;;11.50;99.90;;;;;;5110613;28;19957;-72
2023/09/15 04:36:03;;;;;;;;;;;11.50;99.90;;;;;;5110824;27;19931;-72
2023/09/15 04:38:30;;;;;;;;;;;11.50;99.90;;;;;;5091789;28;20316;-71
2023/09/15 04:40:55;;;;;;;;;;;11.40;99.90;;;;;;5110252;27;20343;-71
2023/09/15 04:43:21;;;;;;;;;;;11.40;99.90;;;;;;5110400;28;19932;-71
2023/09/15 04:45:46;;;;;;;;;;;11.40;99.90;;;;;;5109831;28;19961;-71
2023/09/15 04:48:12;;;;;;;;;;;11.40;99.90;;;;;;5109186;28;19924;-71
2023/09/15 04:50:38;;;;;;;;;;;11.40;99.90;;;;;;5109454;28;19924;-71
2023/09/15 04:53:04;;;;;;;;;;;11.40;99.90;;;;;;5109017;28;19934;-71
2023/09/15 04:55:30;;;;;;;;;;;11.40;99.90;;;;;;5090351;28;19950;-71
2023/09/15 04:57:56;;;;;;;;;;;11.30;99.90;;;;;;5108787;28;19923;-71
2023/09/15 05:00:23;;;;;;;;;;;11.30;99.90;;;;;;5109131;28;19964;-71
2023/09/15 05:02:49;;;;;;;;;;;11.30;99.90;;;;;;5108134;28;19924;-71
2023/09/15 05:05:15;;;;;;;;;;;11.30;99.90;;;;;;5109854;28;20411;-71
2023/09/15 05:07:41;;;;;;;;;;;11.40;99.90;;;;;;5110080;28;19928;-71
2023/09/15 05:10:08;;;;;;;;;;;11.40;99.90;;;;;;5104328;28;19924;-71
2023/09/15 05:12:34;;;;;;;;;;;11.40;99.90;;;;;;5105747;28;19924;-71
2023/09/15 05:14:59;;;;;;;;;;;11.40;99.90;;;;;;5120517;28;19950;-72
2023/09/15 05:17:25;;;;;;;;;;;11.40;99.90;;;;;;5101720;28;20437;-72
2023/09/15 05:19:51;;;;;;;;;;;11.40;99.90;;;;;;5126471;28;19931;-71
2023/09/15 05:22:17;;;;;;;;;;;11.40;99.90;;;;;;5123665;28;19932;-72
2023/09/15 05:24:42;;;;;;;;;;;11.40;99.90;;;;;;5120806;28;19999;-72
2023/09/15 05:27:08;;;;;;;;;;;11.40;99.90;;;;;;5122459;28;19931;-69
2023/09/15 05:29:34;;;;;;;;;;;11.40;99.90;;;;;;5121797;28;19963;-71
2023/09/15 05:31:59;;;;;;;;;;;11.50;99.90;;;;;;5119538;28;19934;-71
2023/09/15 05:34:25;;;;;;;;;;;11.50;99.90;;;;;;5097691;28;20031;-72
2023/09/15 05:36:50;;;;;;;;;;;11.50;99.90;;;;;;5123675;28;19950;-72
2023/09/15 05:39:16;;;;;;;;;;;11.50;99.90;;;;;;5122658;28;20056;-72
2023/09/15 05:41:42;;;;;;;;;;;11.50;99.90;;;;;;5118942;28;19923;-72
2023/09/15 05:44:07;;;;;;;;;;;11.60;99.90;;;;;;5115284;28;19931;-72
2023/09/15 05:46:33;;;;;;;;;;;11.50;99.90;;;;;;5124471;28;19923;-72
2023/09/15 05:48:58;;;;;;;;;;;11.50;99.90;;;;;;5125267;28;20372;-72
2023/09/15 05:51:24;;;;;;;;;;;11.60;99.90;;;;;;5123626;28;19923;-72
2023/09/15 05:53:49;;;;;;;;;;;11.60;99.90;;;;;;5125822;27;19923;-71
2023/09/15 05:56:15;;;;;;;;;;;11.60;99.90;;;;;;5127501;27;19924;-71
2023/09/15 05:58:41;;;;;;;;;;;11.60;99.90;;;;;;5130258;27;19936;-71
2023/09/15 06:01:07;;;;;;;;;;;11.70;99.90;;;;;;5129525;27;19923;-71
2023/09/15 06:03:32;;;;;;;;;;;11.70;99.90;;;;;;5130259;27;19930;-71
2023/09/15 06:05:58;;;;;;;;;;;11.70;99.90;;;;;;5118871;27;19924;-71
2023/09/15 06:08:23;;;;;;;;;;;11.80;99.90;;;;;;5112772;28;19923;-71
2023/09/15 06:10:49;;;;;;;;;;;11.80;99.90;;;;;;5123082;27;19930;-71
2023/09/15 06:13:15;;;;;;;;;;;11.80;99.90;;;;;;5118350;27;19923;-72
2023/09/15 06:15:40;;;;;;;;;;;11.90;99.90;;;;;;5129305;27;19932;-71
2023/09/15 06:18:06;;;;;;;;;;;12.00;99.90;;;;;;5129981;27;19924;-72
2023/09/15 06:20:33;;;;;;;;;;;12.00;99.90;;;;;;5130597;27;20282;-71
2023/09/15 06:22:59;;;;;;;;;;;12.10;99.90;;;;;;5111509;27;20293;-71
2023/09/15 06:25:24;;;;;;;;;;;12.20;99.90;;;;;;5130714;27;19930;-71
2023/09/15 06:27:50;;;;;;;;;;;12.20;99.90;;;;;;5117935;27;20014;-71
2023/09/15 06:30:15;;;;;;;;;;;12.30;99.90;;;;;;5130017;27;20377;-71
2023/09/15 06:32:41;;;;;;;;;;;12.40;99.90;;;;;;5129288;27;19923;-71
2023/09/15 06:35:07;;;;;;;;;;;12.40;99.90;;;;;;5131847;27;19923;-71
2023/09/15 06:37:33;;;;;;;;;;;12.50;99.90;;;;;;5130018;27;20309;-71
2023/09/15 06:39:58;;;;;;;;;;;12.50;99.90;;;;;;5131413;27;19934;-70
2023/09/15 06:42:24;;;;;;;;;;;12.60;99.90;;;;;;5130587;27;19931;-71
2023/09/15 06:44:49;;;;;;;;;;;12.60;99.90;;;;;;5132055;27;20429;-71
2023/09/15 06:47:15;;;;;;;;;;;12.70;99.90;;;;;;5125004;27;19945;-71
2023/09/15 06:49:40;;;;;;;;;;;12.80;99.90;;;;;;5112480;27;19931;-71
2023/09/15 06:52:06;;;;;;;;;;;12.80;99.90;;;;;;5113189;27;19924;-71
2023/09/15 06:54:32;;;;;;;;;;;12.90;99.90;;;;;;5112917;27;20317;-71
2023/09/15 06:56:57;;;;;;;;;;;13.00;99.90;;;;;;5112562;27;19930;-71
2023/09/15 06:59:23;;;;;;;;;;;13.00;99.90;;;;;;5112877;27;20287;-71
2023/09/15 07:01:48;;;;;;;;;;;13.00;85.00;;;;;;5113334;27;19930;-71
2023/09/15 07:04:14;;;;;;;;;;;13.10;63.80;;;;;;5094153;28;19924;-71
2023/09/15 07:06:40;;;;;;;;;;;13.10;16.80;;;;;;5112488;27;19931;-72
2023/09/15 07:09:06;;;;;;;;;;;13.10;1.00;;;;;;5114222;27;19935;-71
2023/09/15 07:11:31;;;;;;;;;;;13.20;1.00;;;;;;5111761;27;19923;-71
2023/09/15 07:13:57;;;;;;;;;;;13.20;1.00;;;;;;5121966;27;19984;-71
2023/09/15 07:16:23;;;;;;;;;;;13.30;1.00;;;;;;5126558;27;19928;-71
2023/09/15 07:18:48;;;;;;;;;;;13.30;1.00;;;;;;5128388;27;19937;-71
2023/09/15 07:21:14;;;;;;;;;;;13.40;1.00;;;;;;5107190;27;19923;-71
2023/09/15 07:23:39;;;;;;;;;;;13.50;1.00;;;;;;5127901;27;20391;-71
2023/09/15 07:26:05;;;;;;;;;;;13.50;1.00;;;;;;5125756;27;19923;-70
2023/09/15 07:28:30;;;;;;;;;;;13.60;1.00;;;;;;5128672;27;20042;-70
2023/09/15 07:31:19;;;;;;;;;;;13.70;1.00;;;;;;5125657;27;19929;-70
2023/09/15 07:33:45;;;;;;;;;;;13.70;99.90;;;;;;5124868;27;20035;-71
2023/09/15 07:36:11;;;;;;;;;;;13.80;99.90;;;;;;5127909;27;20421;-71
2023/09/15 07:38:36;;;;;;;;;;;13.80;99.90;;;;;;5126346;27;20381;-70
2023/09/15 07:41:02;;;;;;;;;;;13.90;99.90;;;;;;5129066;27;19923;-71
2023/09/15 07:43:27;;;;;;;;;;;14.00;99.90;;;;;;5126043;27;20010;-71
2023/09/15 07:45:53;;;;;;;;;;;14.10;99.90;;;;;;5128105;27;20381;-71
2023/09/15 07:48:18;;;;;;;;;;;14.10;99.90;;;;;;5125983;27;20381;-71
2023/09/15 07:50:45;;;;;;;;;;;14.20;99.90;;;;;;5128487;27;20689;-71
2023/09/15 07:53:11;;;;;;;;;;;14.30;99.90;;;;;;5127933;27;19923;-71
2023/09/15 07:55:36;;;;;;;;;;;14.30;1.00;;;;;;5110053;27;20377;-71
2023/09/15 07:58:02;;;;;;;;;;;14.40;1.00;;;;;;5127200;27;19931;-71
2023/09/15 08:00:27;;;;;;;;;;;14.50;1.00;;;;;;5110344;27;19946;-71
2023/09/15 08:02:55;;;;;;;;;;;14.50;26.20;;;;;;5126790;27;21439;-71
2023/09/15 08:05:20;;;;;;;;;;;14.60;1.00;;;;;;5129524;27;20006;-71
2023/09/15 08:07:47;;;;;;;;;;;14.70;99.90;;;;;;5127244;27;19928;-71
2023/09/15 08:10:13;;;;;;;;;;;14.70;99.90;;;;;;5122669;27;19931;-71
2023/09/15 08:12:39;;;;;;;;;;;14.80;99.90;;;;;;5121094;27;19923;-71
2023/09/15 08:15:06;;;;;;;;;;;14.90;1.00;;;;;;5119989;27;20311;-72
2023/09/15 08:17:31;;;;;;;;;;;14.90;1.00;;;;;;5091693;28;19923;-70
2023/09/15 08:19:57;;;;;;;;;;;15.00;99.90;;;;;;5110734;28;19949;-71
2023/09/15 08:22:23;;;;;;;;;;;15.10;7.80;;;;;;5110504;27;19931;-72
2023/09/15 08:24:51;;;;;;;;;;;15.20;99.90;;;;;;5110593;28;19928;-71
2023/09/15 08:27:17;;;;;;;;;;;15.20;1.00;;;;;;5110977;27;19924;-72
2023/09/15 08:29:43;;;;;;;;;;;15.30;99.90;;;;;;5110695;28;19927;-71
2023/09/15 08:32:09;;;;;;;;;;;15.40;99.90;;;;;;5109915;28;19928;-72
2023/09/15 08:34:35;;;;;;;;;;;15.40;1.00;;;;;;5117271;27;19923;-72
2023/09/15 08:37:00;;;;;;;;;;;15.50;9.90;;;;;;5124427;27;19924;-72
2023/09/15 08:39:26;;;;;;;;;;;15.60;99.90;;;;;;5127503;27;19923;-71
2023/09/15 08:41:54;;;;;;;;;;;15.70;99.90;;;;;;5124934;27;20010;-71
2023/09/15 08:44:20;;;;;;;;;;;15.70;99.90;;;;;;5120063;27;19923;-72
2023/09/15 08:46:48;;;;;;;;;;;15.80;99.90;;;;;;5092927;28;19935;-72
2023/09/15 08:49:14;;;;;;;;;;;15.90;99.90;;;;;;5120010;27;19927;-71
2023/09/15 08:51:41;;;;;;;;;;;16.10;80.00;;;;;;5110000;28;19932;-71
2023/09/15 08:54:07;;;;;;;;;;;16.10;6.90;;;;;;5110246;28;19947;-72
2023/09/15 08:56:32;;;;;;;;;;;16.20;99.90;;;;;;5109955;28;20381;-72
2023/09/15 08:58:58;;;;;;;;;;;16.30;99.90;;;;;;5110088;28;19974;-72
2023/09/15 09:01:24;;;;;;;;;;;16.40;99.90;;;;;;5109360;28;20405;-72
2023/09/15 09:03:49;;;;;;;;;;;16.50;99.90;;;;;;5110269;28;20381;-72
2023/09/15 09:06:15;;;;;;;;;;;16.60;99.90;;;;;;5092455;28;19931;-72
2023/09/15 09:08:50;;;;;;;;;;;16.70;99.90;;;;;;5109283;28;19928;-72
2023/09/15 09:11:15;;;;;;;;;;;16.80;99.90;;;;;;5094324;28;19928;-72
2023/09/15 09:13:42;;;;;;;;;;;17.00;99.90;;;;;;5127346;28;20507;-72
2023/09/15 09:16:08;;;;;;;;;;;17.70;99.90;;;;;;5123175;28;19931;-72
2023/09/15 09:18:33;;;;;;;;;;;18.60;1.00;;;;;;5127088;28;20270;-72
2023/09/15 09:21:02;;;;;;;;;;;19.70;99.90;;;;;;5121755;28;19924;-72
2023/09/15 09:23:27;;;;;;;;;;;20.60;99.90;;;;;;5118893;28;19927;-72
2023/09/15 09:25:53;;;;;;;;;;;21.30;99.90;;;;;;5122510;28;20007;-73
2023/09/15 09:28:19;;;;;;;;;;;21.70;99.90;;;;;;5108977;28;19923;-73
2023/09/15 09:30:44;;;;;;;;;;;22.20;99.90;;;;;;5126540;27;19927;-73
2023/09/15 09:33:11;;;;;;;;;;;22.70;99.90;;;;;;5112699;27;19928;-73
2023/09/15 09:35:37;;;;;;;;;;;23.10;99.90;;;;;;5127480;27;19931;-70
2023/09/15 09:38:03;;;;;;;;;;;23.50;99.90;;;;;;5113207;27;19924;-72
2023/09/15 09:40:29;;;;;;;;;;;23.90;99.90;;;;;;5127886;27;20019;-72
2023/09/15 09:42:55;;;;;;;;;;;24.30;99.90;;;;;;5111933;27;20026;-73
2023/09/15 09:45:27;;;;;;;;;;;24.80;99.90;;;;;;5125087;27;19923;-72
2023/09/15 09:47:56;;;;;;;;;;;25.20;99.90;;;;;;5123094;27;20030;-73
2023/09/15 09:50:22;;;;;;;;;;;25.50;99.90;;;;;;5127787;27;19923;-73
2023/09/15 09:52:48;;;;;;;;;;;25.80;99.90;;;;;;5130583;27;19930;-73
2023/09/15 09:55:14;;;;;;;;;;;26.20;99.90;;;;;;5128899;27;19924;-73
2023/09/15 09:57:40;;;;;;;;;;;26.60;99.90;;;;;;5131211;27;19984;-72
2023/09/15 10:00:09;;;;;;;;;;;26.60;98.00;;;;;;5131084;27;20429;-73
2023/09/15 10:02:40;;;;;;;;;;;26.40;95.00;;;;;;5121297;27;19928;-72
2023/09/15 10:05:06;;;;;;;;;;;26.30;95.40;;;;;;5113774;27;20380;-72
2023/09/15 10:07:32;;;;;;;;;;;26.40;94.00;;;;;;5113064;27;19923;-72
2023/09/15 10:09:58;;;;;;;;;;;26.60;93.10;;;;;;5113418;27;19987;-72
2023/09/15 10:12:24;;;;;;;;;;;26.90;92.60;;;;;;5122770;27;19967;-72
2023/09/15 10:14:50;;;;;;;;;;;27.20;91.40;;;;;;5122971;27;19942;-72
2023/09/15 10:17:16;;;;;;;;;;;27.20;89.20;;;;;;5123161;27;19924;-73
2023/09/15 10:19:42;;;;;;;;;;;27.30;88.50;;;;;;5117799;27;19923;-73
2023/09/15 10:22:08;;;;;;;;;;;27.50;87.60;;;;;;5117597;27;19924;-72
2023/09/15 10:24:34;;;;;;;;;;;27.70;86.00;;;;;;5112579;27;20389;-73
2023/09/15 10:26:59;;;;;;;;;;;27.80;84.30;;;;;;5113103;28;19935;-72
2023/09/15 10:29:34;;;;;;;;;;;28.10;85.10;;;;;;5113720;27;20586;-72
2023/09/15 10:32:03;;;;;;;;;;;28.20;83.60;;;;;;5112755;27;20010;-72
2023/09/15 10:34:29;;;;;;;;;;;28.40;81.10;;;;;;5112354;27;19928;-72
2023/09/15 10:36:58;;;;;;;;;;;28.40;78.30;;;;;;5112914;27;19928;-71
2023/09/15 10:39:33;;;;;;;;;;;28.30;77.50;;;;;;5109611;27;20519;-71
2023/09/15 10:42:04;;;;;;;;;;;28.50;76.00;;;;;;5115114;27;19931;-71
2023/09/15 10:44:30;;;;;;;;;;;28.70;75.60;;;;;;5111416;27;19991;-72
2023/09/15 10:46:55;;;;;;;;;;;28.80;73.90;;;;;;5093930;28;20381;-72
2023/09/15 10:49:22;;;;;;;;;;;29.10;74.60;;;;;;5112157;28;19924;-72
2023/09/15 10:51:54;;;;;;;;;;;29.30;74.80;;;;;;5112405;27;20654;-72
2023/09/15 10:54:20;;;;;;;;;;;29.60;74.50;;;;;;5112731;27;19984;-71
2023/09/15 10:56:46;;;;;;;;;;;29.70;73.20;;;;;;5111786;27;19927;-72
2023/09/15 10:59:13;;;;;;;;;;;29.50;72.20;;;;;;5112261;28;20322;-71
2023/09/15 11:01:43;;;;;;;;;;;29.30;69.50;;;;;;5111495;27;19924;-72
2023/09/15 11:04:10;;;;;;;;;;;29.40;69.20;;;;;;5094285;28;19958;-72
2023/09/15 11:06:36;;;;;;;;;;;29.60;69.20;;;;;;5093827;28;20007;-72
2023/09/15 11:09:04;;;;;;;;;;;29.70;68.40;;;;;;5111771;27;20018;-71
2023/09/15 11:11:31;;;;;;;;;;;29.70;66.60;;;;;;5105361;27;20274;-71
2023/09/15 11:13:57;;;;;;;;;;;29.70;66.90;;;;;;5117999;27;19924;-71
2023/09/15 11:16:24;;;;;;;;;;;29.80;66.50;;;;;;5107831;27;19924;-71
2023/09/15 11:18:50;;;;;;;;;;;29.90;65.40;;;;;;5127621;27;19927;-71
2023/09/15 11:21:15;;;;;;;;;;;29.70;63.90;;;;;;5091763;27;20320;-71
2023/09/15 11:23:46;;;;;;;;;;;29.60;62.60;;;;;;5117547;27;20499;-72
2023/09/15 11:26:11;;;;;;;;;;;29.60;62.10;;;;;;5127502;27;19924;-72
2023/09/15 11:28:37;;;;;;;;;;;29.90;64.10;;;;;;5128748;27;19924;-72
2023/09/15 11:31:06;;;;;;;;;;;30.20;64.60;;;;;;5092785;28;20022;-72
2023/09/15 11:33:32;;;;;;;;;;;30.30;63.70;;;;;;5123162;27;19948;-72
2023/09/15 11:35:57;;;;;;;;;;;30.20;61.70;;;;;;5105033;27;19927;-72
2023/09/15 11:38:23;;;;;;;;;;;30.30;62.00;;;;;;5105575;28;20366;-72
2023/09/15 11:40:50;;;;;;;;;;;30.30;61.90;;;;;;5111741;28;19924;-72
2023/09/15 11:43:15;;;;;;;;;;;30.40;62.00;;;;;;5092928;28;19923;-72
2023/09/15 11:45:41;;;;;;;;;;;30.30;61.10;;;;;;5117214;27;19927;-72
2023/09/15 11:48:07;;;;;;;;;;;30.40;60.90;;;;;;5116801;27;19975;-72
2023/09/15 11:50:33;;;;;;;;;;;30.40;60.10;;;;;;5122858;27;20447;-72
2023/09/15 11:52:59;;;;;;;;;;;30.30;58.50;;;;;;5120939;27;19924;-72
2023/09/15 11:55:25;;;;;;;;;;;30.10;57.30;;;;;;5110966;27;19948;-72
2023/09/15 11:57:51;;;;;;;;;;;30.10;58.00;;;;;;5130093;27;19998;-72
2023/09/15 12:00:20;;;;;;;;;;;30.20;58.00;;;;;;5130471;27;20054;-72
2023/09/15 12:02:46;;;;;;;;;;;30.30;58.10;;;;;;5118394;27;20308;-72
2023/09/15 12:05:15;;;;;;;;;;;30.40;58.40;;;;;;5110412;28;20014;-72
2023/09/15 12:07:43;;;;;;;;;;;30.50;57.60;;;;;;5110704;27;19934;-72
2023/09/15 12:10:10;;;;;;;;;;;30.60;57.50;;;;;;5111122;27;19927;-72
2023/09/15 12:12:36;;;;;;;;;;;30.80;57.60;;;;;;5092838;28;20302;-72
2023/09/15 12:15:04;;;;;;;;;;;30.90;57.90;;;;;;5110461;28;19924;-72
2023/09/15 12:17:33;;;;;;;;;;;31.00;58.20;;;;;;5111250;27;19931;-72
2023/09/15 12:19:59;;;;;;;;;;;31.10;57.40;;;;;;5101116;28;19924;-72
2023/09/15 12:22:34;;;;;;;;;;;31.10;58.10;;;;;;5110937;27;19923;-72
2023/09/15 12:25:00;;;;;;;;;;;31.10;58.60;;;;;;5110954;28;19928;-72
2023/09/15 12:27:28;;;;;;;;;;;31.20;57.60;;;;;;5111661;28;19931;-72
2023/09/15 12:29:56;;;;;;;;;;;31.30;58.40;;;;;;5111257;28;20040;-72
2023/09/15 12:32:30;;;;;;;;;;;31.30;57.30;;;;;;5110818;27;19924;-72
2023/09/15 12:34:56;;;;;;;;;;;31.20;57.30;;;;;;5110387;28;19969;-72
2023/09/15 12:37:24;;;;;;;;;;;31.10;55.50;;;;;;5110366;27;19927;-72
2023/09/15 12:39:50;;;;;;;;;;;31.20;54.50;;;;;;5109992;28;19927;-72
2023/09/15 12:42:15;;;;;;;;;;;31.10;54.90;;;;;;5092482;28;19950;-72
2023/09/15 12:44:41;;;;;;;;;;;31.20;54.90;;;;;;5092068;28;19927;-72
2023/09/15 12:47:06;;;;;;;;;;;31.10;54.10;;;;;;5110405;28;19996;-72
2023/09/15 12:49:32;;;;;;;;;;;30.90;53.30;;;;;;5109464;28;19946;-72
2023/09/15 12:51:58;;;;;;;;;;;30.80;52.40;;;;;;5109200;28;19923;-72
2023/09/15 12:54:24;;;;;;;;;;;30.80;52.70;;;;;;5110671;28;19962;-72
2023/09/15 12:56:52;;;;;;;;;;;30.90;51.90;;;;;;5113929;28;19927;-71
2023/09/15 12:59:21;;;;;;;;;;;30.90;52.10;;;;;;5119058;27;19924;-71
2023/09/15 13:01:47;;;;;;;;;;;31.20;52.90;;;;;;5109486;28;19973;-72
2023/09/15 13:04:12;;;;;;;;;;;31.40;52.80;;;;;;5112821;28;19931;-72
2023/09/15 13:06:38;;;;;;;;;;;31.50;53.20;;;;;;5116577;27;19931;-72
2023/09/15 13:09:04;;;;;;;;;;;31.70;53.90;;;;;;5116508;28;19966;-72
2023/09/15 13:11:31;;;;;;;;;;;31.60;52.00;;;;;;5120846;27;19924;-72
2023/09/15 13:13:57;;;;;;;;;;;31.40;52.10;;;;;;5133749;27;19927;-72
2023/09/15 13:16:23;;;;;;;;;;;31.30;51.30;;;;;;5128732;27;19974;-72
2023/09/15 13:18:48;;;;;;;;;;;31.50;51.60;;;;;;5128372;27;19966;-72
2023/09/15 13:21:14;;;;;;;;;;;31.30;50.50;;;;;;5120532;27;19923;-72
2023/09/15 13:23:39;;;;;;;;;;;31.30;50.20;;;;;;5123797;27;19931;-71
2023/09/15 13:26:05;;;;;;;;;;;31.30;49.80;;;;;;5127228;27;20002;-72
2023/09/15 13:28:33;;;;;;;;;;;31.40;50.10;;;;;;5110141;27;19923;-72
2023/09/15 13:31:00;;;;;;;;;;;31.60;50.70;;;;;;5114977;27;19924;-72
2023/09/15 13:33:26;;;;;;;;;;;31.80;51.30;;;;;;5116388;27;19967;-71
2023/09/15 13:35:51;;;;;;;;;;;31.90;50.70;;;;;;5116440;27;19970;-72
2023/09/15 13:38:17;;;;;;;;;;;31.60;50.00;;;;;;5117047;27;19924;-72
2023/09/15 13:40:42;;;;;;;;;;;31.00;47.90;;;;;;5116152;27;19924;-72
2023/09/15 13:43:08;;;;;;;;;;;30.20;45.10;;;;;;5116712;27;19927;-71
2023/09/15 13:45:34;;;;;;;;;;;29.40;43.00;;;;;;5116058;27;19924;-71
2023/09/15 13:47:59;;;;;;;;;;;29.00;41.00;;;;;;5116196;28;19928;-72
2023/09/15 13:50:25;;;;;;;;;;;28.50;39.50;;;;;;5116213;27;19931;-72
2023/09/15 13:52:50;;;;;;;;;;;28.10;38.30;;;;;;5116510;28;19927;-72
2023/09/15 13:55:16;;;;;;;;;;;27.70;36.50;;;;;;5116064;27;19931;-72
2023/09/15 13:57:41;;;;;;;;;;;27.20;35.00;;;;;;5115336;27;19931;-72
2023/09/15 14:00:09;;;;;;;;;;;26.90;34.60;;;;;;5116194;27;19931;-72
2023/09/15 14:02:35;;;;;;;;;;;26.70;33.90;;;;;;5115350;27;20437;-71
2023/09/15 14:05:02;;;;;;;;;;;26.60;33.40;;;;;;5116523;27;19984;-72
2023/09/15 14:07:27;;;;;;;;;;;26.50;32.90;;;;;;5081045;28;20027;-71
2023/09/15 14:09:53;;;;;;;;;;;26.40;33.00;;;;;;5098011;28;20340;-71
2023/09/15 14:12:18;;;;;;;;;;;26.30;33.20;;;;;;5098277;28;19979;-72
2023/09/15 14:14:44;;;;;;;;;;;26.30;33.20;;;;;;5120321;27;20354;-72